Angel Fire, NM (87710)

8:51 AM MST on December 03, 2016 (GMT -0700)
NW face of Angel Fire Ski Mountain | | Change Station

Elev 8907 ft 36.39 °N, 105.26 °W | Updated 3 minutes ago

Light Freezing Fog
Freezing Fog
18.2 °F
Feels Like 18 °F
N
0.0
Wind Variable Wind from NNE
Gusts 1.0 mph

Today
High -- | Low -- °F
--% Chance of Precip.
Yesterday
High -- | Low -- °F
Precip. -- in
Pressure 30.10 in
Visibility 0.2 miles
Clouds Overcast 100 ft
Windchill 18 °F
Dew Point 16 °F
Humidity 92%
Rainfall 0.00 in
Snow Depth Not available.
6:56 AM 4:45 PM
Waxing Crescent, 15% visible
METAR KAXX 031535Z AUTO 00000KT 1/4SM FZFG OVC001 M08/M09 A3010 RMK AO2 T10851093
Pressure 30.10 in
Visibility 0.2 miles
Clouds Overcast 100 ft
Windchill 18 °F
Dew Point 16 °F
Humidity 92%
Rainfall 0.00 in
Snow Depth Not available.
6:56 AM 4:45 PM
Waxing Crescent, 15% visible
METAR KAXX 031535Z AUTO 00000KT 1/4SM FZFG OVC001 M08/M09 A3010 RMK AO2 T10851093

10-Day Weather Forecast

Almanac

Astronomy

Dec. 03, 2016 Rise Set
Actual Time
Civil Twilight
Nautical Twilight
Astronomical Twilight
Moon
Length of Visible Light
Length of Day
Tomorrow will be .
, % of the Moon is Illuminated

Today's Extremes

State Highs State Lows

Community

WunderPhotos

Upload Photos

1,955,427 photos uploaded!

WunderBlog® & News

Nearby

Air Quality

  Air Quality AQ Index Pollutant
Not available.

Snow Depth

Station Depth Elevation

Earthquake Activity

City Distance Mag. Time & Date
Minimum magnitude displayed is 2.5.

Coastal Water Temperatures

Place Temperature

Stations

Nearby Weather Stations

Station Location Temp. Windchill Dew Point Humidity Wind Precip. Elev Updated Type
                   

Watches & Warnings

There are currently no watches in effect.